X  Close Metar Aviation Weather Data     KAST Astoria Regional
Temperature
37°F Temperature
37°F Dewpoint
100% Humidity



Wind
3 MPH
5 KM/H
1 M/S
3 KTS



130°
SE
Current Conditions

Mostly Scattered Clouds Mostly Scattered Clouds
Pressure 1028.42 (hPa) - 30.37 (inHg)
Visibility 10 (mile) - 16.1 (km)
Airport
Airport-code KAST

Location: Astoria Regional
Distance: 20 (mi)

Metar:
KAST 171155Z AUTO 13003KT 10SM SCT025 BKN031 OVC038 03/03 A3037 RMK AO2 RAB42E54 CIG 026 RWY 08 SLP285 P0001 60006 70017 T00330028 10056 20028 51005 $

Time: 02-17-2020 03:55 PST